Airport View

Enter AWOS ICAO identifier for current METAR.

ex. KFNL

KAFP 080840Z AUTO 00000KT 10SM CLR 18/14 A2976 RMK AO2 T01760135

8 Apr 2020 08:41

Frequency: 119.325

Phone: 704-695-0623

Other Area AWOS: KRCZ - KCQW - KVUJ - KEQY

TAF AMD KCLT 080758Z 0808/0912 24005KT P6SM FEW250 FM081800 26009G18KT P6SM SCT050 PROB30 0821/0823 4SM TSRA BR BKN040CB FM090100 24005KT P6SM SCT060